sensor_id;sensor_type;location;lat;lon;timestamp;temperature;humidity
72928;SHT30;61071;51.618;19.388;2023-04-15T00:01:26;10.36;82.05
72928;SHT30;61071;51.618;19.388;2023-04-15T00:03:53;10.27;82.03
72928;SHT30;61071;51.618;19.388;2023-04-15T00:06:20;10.29;82.05
72928;SHT30;61071;51.618;19.388;2023-04-15T00:08:47;10.23;82.63
72928;SHT30;61071;51.618;19.388;2023-04-15T00:11:13;10.21;82.75
72928;SHT30;61071;51.618;19.388;2023-04-15T00:13:40;10.14;83.29
72928;SHT30;61071;51.618;19.388;2023-04-15T00:16:07;10.07;83.60
72928;SHT30;61071;51.618;19.388;2023-04-15T00:18:34;10.12;83.32
72928;SHT30;61071;51.618;19.388;2023-04-15T00:21:00;10.10;83.34
72928;SHT30;61071;51.618;19.388;2023-04-15T00:23:26;10.07;83.48
72928;SHT30;61071;51.618;19.388;2023-04-15T00:25:52;10.13;83.71
72928;SHT30;61071;51.618;19.388;2023-04-15T00:28:18;10.13;83.47
72928;SHT30;61071;51.618;19.388;2023-04-15T00:30:44;10.18;83.43
72928;SHT30;61071;51.618;19.388;2023-04-15T00:33:11;10.14;83.08
72928;SHT30;61071;51.618;19.388;2023-04-15T00:35:37;10.12;83.17
72928;SHT30;61071;51.618;19.388;2023-04-15T00:38:05;10.13;82.91
72928;SHT30;61071;51.618;19.388;2023-04-15T00:40:31;10.18;82.61
72928;SHT30;61071;51.618;19.388;2023-04-15T00:42:57;10.26;82.21
72928;SHT30;61071;51.618;19.388;2023-04-15T00:45:25;10.21;82.84
72928;SHT30;61071;51.618;19.388;2023-04-15T00:47:53;10.16;82.63
72928;SHT30;61071;51.618;19.388;2023-04-15T00:50:18;10.16;82.70
72928;SHT30;61071;51.618;19.388;2023-04-15T00:52:44;10.13;82.55
72928;SHT30;61071;51.618;19.388;2023-04-15T00:55:10;10.16;82.56
72928;SHT30;61071;51.618;19.388;2023-04-15T00:57:38;10.14;82.42
72928;SHT30;61071;51.618;19.388;2023-04-15T01:00:05;10.16;82.39
72928;SHT30;61071;51.618;19.388;2023-04-15T01:02:36;10.18;82.32
72928;SHT30;61071;51.618;19.388;2023-04-15T01:05:03;10.18;82.26
72928;SHT30;61071;51.618;19.388;2023-04-15T01:07:29;10.23;82.13
72928;SHT30;61071;51.618;19.388;2023-04-15T01:09:56;10.29;81.82
72928;SHT30;61071;51.618;19.388;2023-04-15T01:12:25;10.18;82.28
72928;SHT30;61071;51.618;19.388;2023-04-15T01:14:53;10.16;82.30
72928;SHT30;61071;51.618;19.388;2023-04-15T01:17:19;10.17;82.41
72928;SHT30;61071;51.618;19.388;2023-04-15T01:19:46;10.12;82.67
72928;SHT30;61071;51.618;19.388;2023-04-15T01:22:12;10.09;82.54
72928;SHT30;61071;51.618;19.388;2023-04-15T01:24:37;10.07;82.67
72928;SHT30;61071;51.618;19.388;2023-04-15T01:27:04;10.10;82.98
72928;SHT30;61071;51.618;19.388;2023-04-15T01:29:35;10.07;82.91
72928;SHT30;61071;51.618;19.388;2023-04-15T01:32:01;10.18;83.05
72928;SHT30;61071;51.618;19.388;2023-04-15T01:34:26;10.12;83.36
72928;SHT30;61071;51.618;19.388;2023-04-15T01:36:52;10.03;83.39
72928;SHT30;61071;51.618;19.388;2023-04-15T01:39:18;10.07;83.39
72928;SHT30;61071;51.618;19.388;2023-04-15T01:41:44;10.07;83.77
72928;SHT30;61071;51.618;19.388;2023-04-15T01:44:09;10.02;83.88
72928;SHT30;61071;51.618;19.388;2023-04-15T01:46:36;9.96;84.01
72928;SHT30;61071;51.618;19.388;2023-04-15T01:49:02;10.07;83.94
72928;SHT30;61071;51.618;19.388;2023-04-15T01:51:28;10.03;84.10
72928;SHT30;61071;51.618;19.388;2023-04-15T01:53:53;9.97;84.10
72928;SHT30;61071;51.618;19.388;2023-04-15T01:56:21;10.05;84.24
72928;SHT30;61071;51.618;19.388;2023-04-15T01:58:48;9.95;84.68
72928;SHT30;61071;51.618;19.388;2023-04-15T02:01:14;9.97;84.87
72928;SHT30;61071;51.618;19.388;2023-04-15T02:03:41;9.99;84.81
72928;SHT30;61071;51.618;19.388;2023-04-15T02:06:07;9.99;85.02
72928;SHT30;61071;51.618;19.388;2023-04-15T02:08:33;9.92;85.12
72928;SHT30;61071;51.618;19.388;2023-04-15T02:10:58;9.96;85.56
72928;SHT30;61071;51.618;19.388;2023-04-15T02:13:25;9.85;85.89
72928;SHT30;61071;51.618;19.388;2023-04-15T02:15:51;9.88;86.07
72928;SHT30;61071;51.618;19.388;2023-04-15T02:18:17;9.85;86.42
72928;SHT30;61071;51.618;19.388;2023-04-15T02:20:43;9.79;86.66
72928;SHT30;61071;51.618;19.388;2023-04-15T02:23:10;9.75;87.08
72928;SHT30;61071;51.618;19.388;2023-04-15T02:25:37;9.74;87.08
72928;SHT30;61071;51.618;19.388;2023-04-15T02:28:06;9.74;87.27
72928;SHT30;61071;51.618;19.388;2023-04-15T02:30:32;9.72;87.59
72928;SHT30;61071;51.618;19.388;2023-04-15T02:33:00;9.65;87.81
72928;SHT30;61071;51.618;19.388;2023-04-15T02:35:26;9.68;88.08
72928;SHT30;61071;51.618;19.388;2023-04-15T02:37:52;9.63;88.18
72928;SHT30;61071;51.618;19.388;2023-04-15T02:40:18;9.62;88.29
72928;SHT30;61071;51.618;19.388;2023-04-15T02:42:43;9.55;88.54
72928;SHT30;61071;51.618;19.388;2023-04-15T02:45:10;9.61;88.47
72928;SHT30;61071;51.618;19.388;2023-04-15T02:47:39;9.55;88.69
72928;SHT30;61071;51.618;19.388;2023-04-15T02:50:11;9.49;88.88
72928;SHT30;61071;51.618;19.388;2023-04-15T02:52:41;9.44;89.24
72928;SHT30;61071;51.618;19.388;2023-04-15T02:55:07;9.54;89.02
72928;SHT30;61071;51.618;19.388;2023-04-15T02:57:34;9.54;89.01
72928;SHT30;61071;51.618;19.388;2023-04-15T03:00:03;9.54;89.04
72928;SHT30;61071;51.618;19.388;2023-04-15T03:02:37;9.58;88.85
72928;SHT30;61071;51.618;19.388;2023-04-15T03:05:04;9.57;88.73
72928;SHT30;61071;51.618;19.388;2023-04-15T03:07:31;9.62;88.55
72928;SHT30;61071;51.618;19.388;2023-04-15T03:09:57;9.47;89.14
72928;SHT30;61071;51.618;19.388;2023-04-15T03:12:22;9.58;89.00
72928;SHT30;61071;51.618;19.388;2023-04-15T03:14:48;9.58;89.22
72928;SHT30;61071;51.618;19.388;2023-04-15T03:17:14;9.51;89.29
72928;SHT30;61071;51.618;19.388;2023-04-15T03:19:40;9.51;89.34
72928;SHT30;61071;51.618;19.388;2023-04-15T03:22:05;9.54;89.36
72928;SHT30;61071;51.618;19.388;2023-04-15T03:24:31;9.45;89.73
72928;SHT30;61071;51.618;19.388;2023-04-15T03:26:57;9.42;89.81
72928;SHT30;61071;51.618;19.388;2023-04-15T03:29:23;9.38;90.18
72928;SHT30;61071;51.618;19.388;2023-04-15T03:31:50;9.41;90.21
72928;SHT30;61071;51.618;19.388;2023-04-15T03:34:16;9.38;90.37
72928;SHT30;61071;51.618;19.388;2023-04-15T03:36:42;9.40;90.41
72928;SHT30;61071;51.618;19.388;2023-04-15T03:39:08;9.42;90.43
72928;SHT30;61071;51.618;19.388;2023-04-15T03:41:33;9.47;90.39
72928;SHT30;61071;51.618;19.388;2023-04-15T03:43:59;9.47;90.48
72928;SHT30;61071;51.618;19.388;2023-04-15T03:46:25;9.48;90.59
72928;SHT30;61071;51.618;19.388;2023-04-15T03:48:51;9.41;90.66
72928;SHT30;61071;51.618;19.388;2023-04-15T03:51:17;9.41;90.66
72928;SHT30;61071;51.618;19.388;2023-04-15T03:53:42;9.41;90.98
72928;SHT30;61071;51.618;19.388;2023-04-15T03:56:08;9.35;91.05
72928;SHT30;61071;51.618;19.388;2023-04-15T03:58:34;9.41;91.13
72928;SHT30;61071;51.618;19.388;2023-04-15T04:01:00;9.38;91.03
72928;SHT30;61071;51.618;19.388;2023-04-15T04:03:25;9.45;90.91
72928;SHT30;61071;51.618;19.388;2023-04-15T04:05:51;9.40;91.09
72928;SHT30;61071;51.618;19.388;2023-04-15T04:08:17;9.37;91.32
72928;SHT30;61071;51.618;19.388;2023-04-15T04:10:44;9.37;91.53
72928;SHT30;61071;51.618;19.388;2023-04-15T04:13:09;9.37;91.60
72928;SHT30;61071;51.618;19.388;2023-04-15T04:15:35;9.31;91.76
72928;SHT30;61071;51.618;19.388;2023-04-15T04:18:01;9.26;91.96
72928;SHT30;61071;51.618;19.388;2023-04-15T04:20:26;9.28;91.96
72928;SHT30;61071;51.618;19.388;2023-04-15T04:22:52;9.24;92.21
72928;SHT30;61071;51.618;19.388;2023-04-15T04:25:18;9.30;92.28
72928;SHT30;61071;51.618;19.388;2023-04-15T04:27:43;9.30;92.41
72928;SHT30;61071;51.618;19.388;2023-04-15T04:30:10;9.26;92.29
72928;SHT30;61071;51.618;19.388;2023-04-15T04:32:37;9.32;92.07
72928;SHT30;61071;51.618;19.388;2023-04-15T04:35:03;9.28;92.12
72928;SHT30;61071;51.618;19.388;2023-04-15T04:37:29;9.31;92.17
72928;SHT30;61071;51.618;19.388;2023-04-15T04:39:55;9.44;91.84
72928;SHT30;61071;51.618;19.388;2023-04-15T04:42:21;9.41;91.66
72928;SHT30;61071;51.618;19.388;2023-04-15T04:44:47;9.40;91.87
72928;SHT30;61071;51.618;19.388;2023-04-15T04:47:13;9.32;92.03
72928;SHT30;61071;51.618;19.388;2023-04-15T04:49:38;9.31;92.11
72928;SHT30;61071;51.618;19.388;2023-04-15T04:52:05;9.37;92.11
72928;SHT30;61071;51.618;19.388;2023-04-15T04:54:32;9.32;92.23
72928;SHT30;61071;51.618;19.388;2023-04-15T04:56:57;9.30;92.17
72928;SHT30;61071;51.618;19.388;2023-04-15T04:59:23;9.31;92.10
72928;SHT30;61071;51.618;19.388;2023-04-15T05:01:49;9.41;92.05
72928;SHT30;61071;51.618;19.388;2023-04-15T05:04:15;9.48;91.81
72928;SHT30;61071;51.618;19.388;2023-04-15T05:06:41;9.40;91.71
72928;SHT30;61071;51.618;19.388;2023-04-15T05:09:07;9.37;91.94
72928;SHT30;61071;51.618;19.388;2023-04-15T05:11:32;9.41;92.09
72928;SHT30;61071;51.618;19.388;2023-04-15T05:13:58;9.47;92.08
72928;SHT30;61071;51.618;19.388;2023-04-15T05:16:26;9.54;91.98
72928;SHT30;61071;51.618;19.388;2023-04-15T05:18:52;9.52;91.93
72928;SHT30;61071;51.618;19.388;2023-04-15T05:21:19;9.52;91.65
72928;SHT30;61071;51.618;19.388;2023-04-15T05:23:45;9.54;91.68
72928;SHT30;61071;51.618;19.388;2023-04-15T05:26:11;9.63;91.65
72928;SHT30;61071;51.618;19.388;2023-04-15T05:28:37;9.65;91.07
72928;SHT30;61071;51.618;19.388;2023-04-15T05:31:03;9.88;90.71
72928;SHT30;61071;51.618;19.388;2023-04-15T05:33:28;9.75;90.80
72928;SHT30;61071;51.618;19.388;2023-04-15T05:35:54;9.62;91.07
72928;SHT30;61071;51.618;19.388;2023-04-15T05:38:20;9.68;91.27
72928;SHT30;61071;51.618;19.388;2023-04-15T05:40:46;9.71;91.56
72928;SHT30;61071;51.618;19.388;2023-04-15T05:43:11;9.67;91.52
72928;SHT30;61071;51.618;19.388;2023-04-15T05:45:37;9.68;91.51
72928;SHT30;61071;51.618;19.388;2023-04-15T05:48:03;9.71;91.38
72928;SHT30;61071;51.618;19.388;2023-04-15T05:50:28;9.76;91.31
72928;SHT30;61071;51.618;19.388;2023-04-15T05:52:54;9.76;91.06
72928;SHT30;61071;51.618;19.388;2023-04-15T05:55:20;9.72;91.22
72928;SHT30;61071;51.618;19.388;2023-04-15T05:57:46;9.68;91.24
72928;SHT30;61071;51.618;19.388;2023-04-15T06:00:13;9.71;91.63
72928;SHT30;61071;51.618;19.388;2023-04-15T06:02:39;9.79;91.21
72928;SHT30;61071;51.618;19.388;2023-04-15T06:05:05;9.75;90.79
72928;SHT30;61071;51.618;19.388;2023-04-15T06:07:36;9.69;91.01
72928;SHT30;61071;51.618;19.388;2023-04-15T06:10:03;9.67;91.50
72928;SHT30;61071;51.618;19.388;2023-04-15T06:12:29;9.72;91.35
72928;SHT30;61071;51.618;19.388;2023-04-15T06:14:55;9.82;91.28
72928;SHT30;61071;51.618;19.388;2023-04-15T06:17:21;9.85;91.18
72928;SHT30;61071;51.618;19.388;2023-04-15T06:19:47;9.69;91.01
72928;SHT30;61071;51.618;19.388;2023-04-15T06:22:15;9.67;91.32
72928;SHT30;61071;51.618;19.388;2023-04-15T06:24:41;9.79;91.28
72928;SHT30;61071;51.618;19.388;2023-04-15T06:27:06;9.72;90.98
72928;SHT30;61071;51.618;19.388;2023-04-15T06:29:32;9.82;91.12
72928;SHT30;61071;51.618;19.388;2023-04-15T06:31:58;9.82;91.26
72928;SHT30;61071;51.618;19.388;2023-04-15T06:34:24;9.74;91.15
72928;SHT30;61071;51.618;19.388;2023-04-15T06:36:50;9.88;91.18
72928;SHT30;61071;51.618;19.388;2023-04-15T06:39:15;9.89;91.14
72928;SHT30;61071;51.618;19.388;2023-04-15T06:41:41;9.79;90.98
72928;SHT30;61071;51.618;19.388;2023-04-15T06:44:07;9.74;90.83
72928;SHT30;61071;51.618;19.388;2023-04-15T06:46:33;9.75;91.23
72928;SHT30;61071;51.618;19.388;2023-04-15T06:48:59;9.81;91.46
72928;SHT30;61071;51.618;19.388;2023-04-15T06:51:25;9.89;91.08
72928;SHT30;61071;51.618;19.388;2023-04-15T06:53:51;9.89;90.97
72928;SHT30;61071;51.618;19.388;2023-04-15T06:56:17;9.93;90.33
72928;SHT30;61071;51.618;19.388;2023-04-15T06:58:42;9.83;90.94
72928;SHT30;61071;51.618;19.388;2023-04-15T07:01:08;9.82;90.92
72928;SHT30;61071;51.618;19.388;2023-04-15T07:03:34;9.81;91.26
72928;SHT30;61071;51.618;19.388;2023-04-15T07:06:00;9.86;91.17
72928;SHT30;61071;51.618;19.388;2023-04-15T07:08:26;9.99;91.07
72928;SHT30;61071;51.618;19.388;2023-04-15T07:10:52;10.02;90.78
72928;SHT30;61071;51.618;19.388;2023-04-15T07:13:18;10.00;90.86
72928;SHT30;61071;51.618;19.388;2023-04-15T07:15:44;10.02;90.58
72928;SHT30;61071;51.618;19.388;2023-04-15T07:18:10;10.03;90.92
72928;SHT30;61071;51.618;19.388;2023-04-15T07:20:36;10.12;90.38
72928;SHT30;61071;51.618;19.388;2023-04-15T07:23:01;10.21;90.22
72928;SHT30;61071;51.618;19.388;2023-04-15T07:25:28;10.13;90.17
72928;SHT30;61071;51.618;19.388;2023-04-15T07:27:53;10.26;89.62
72928;SHT30;61071;51.618;19.388;2023-04-15T07:30:19;10.06;89.98
72928;SHT30;61071;51.618;19.388;2023-04-15T07:32:45;10.06;90.34
72928;SHT30;61071;51.618;19.388;2023-04-15T07:35:10;10.10;90.33
72928;SHT30;61071;51.618;19.388;2023-04-15T07:37:36;10.17;90.31
72928;SHT30;61071;51.618;19.388;2023-04-15T07:40:02;10.30;90.21
72928;SHT30;61071;51.618;19.388;2023-04-15T07:42:29;10.32;90.20
72928;SHT30;61071;51.618;19.388;2023-04-15T07:44:56;10.37;89.95
72928;SHT30;61071;51.618;19.388;2023-04-15T07:47:21;10.43;89.80
72928;SHT30;61071;51.618;19.388;2023-04-15T07:49:47;10.55;89.43
72928;SHT30;61071;51.618;19.388;2023-04-15T07:52:13;10.55;89.04
72928;SHT30;61071;51.618;19.388;2023-04-15T07:54:39;10.58;89.04
72928;SHT30;61071;51.618;19.388;2023-04-15T07:57:05;10.55;89.05
72928;SHT30;61071;51.618;19.388;2023-04-15T07:59:30;10.55;89.05
72928;SHT30;61071;51.618;19.388;2023-04-15T08:01:58;10.65;88.90
72928;SHT30;61071;51.618;19.388;2023-04-15T08:04:24;10.55;88.76
72928;SHT30;61071;51.618;19.388;2023-04-15T08:06:49;10.55;88.11
72928;SHT30;61071;51.618;19.388;2023-04-15T08:09:17;10.65;88.25
72928;SHT30;61071;51.618;19.388;2023-04-15T08:11:42;10.65;88.09
72928;SHT30;61071;51.618;19.388;2023-04-15T08:14:08;10.57;88.61
72928;SHT30;61071;51.618;19.388;2023-04-15T08:16:34;10.44;88.67
72928;SHT30;61071;51.618;19.388;2023-04-15T08:19:00;10.47;88.83
72928;SHT30;61071;51.618;19.388;2023-04-15T08:21:26;10.53;89.07
72928;SHT30;61071;51.618;19.388;2023-04-15T08:23:52;10.61;88.98
72928;SHT30;61071;51.618;19.388;2023-04-15T08:26:20;10.51;89.25
72928;SHT30;61071;51.618;19.388;2023-04-15T08:28:46;10.48;89.13
72928;SHT30;61071;51.618;19.388;2023-04-15T08:31:17;10.51;88.85
72928;SHT30;61071;51.618;19.388;2023-04-15T08:33:44;10.54;88.35
72928;SHT30;61071;51.618;19.388;2023-04-15T08:36:11;10.68;88.76
72928;SHT30;61071;51.618;19.388;2023-04-15T08:38:38;10.71;88.52
72928;SHT30;61071;51.618;19.388;2023-04-15T08:41:23;10.76;88.09
72928;SHT30;61071;51.618;19.388;2023-04-15T08:43:53;10.83;87.73
72928;SHT30;61071;51.618;19.388;2023-04-15T08:46:21;10.72;87.79
72928;SHT30;61071;51.618;19.388;2023-04-15T08:48:48;10.92;87.56
72928;SHT30;61071;51.618;19.388;2023-04-15T08:51:16;10.98;87.79
72928;SHT30;61071;51.618;19.388;2023-04-15T08:53:43;10.99;87.39
72928;SHT30;61071;51.618;19.388;2023-04-15T08:56:14;11.01;87.42
72928;SHT30;61071;51.618;19.388;2023-04-15T08:58:43;10.85;86.98
72928;SHT30;61071;51.618;19.388;2023-04-15T09:01:11;10.81;87.34
72928;SHT30;61071;51.618;19.388;2023-04-15T09:03:38;10.89;87.60
72928;SHT30;61071;51.618;19.388;2023-04-15T09:06:05;11.01;87.35
72928;SHT30;61071;51.618;19.388;2023-04-15T09:08:32;11.06;87.24
72928;SHT30;61071;51.618;19.388;2023-04-15T09:11:03;11.09;86.95
72928;SHT30;61071;51.618;19.388;2023-04-15T09:13:29;11.12;87.08
72928;SHT30;61071;51.618;19.388;2023-04-15T09:15:55;11.09;86.68
72928;SHT30;61071;51.618;19.388;2023-04-15T09:18:31;11.15;86.81
72928;SHT30;61071;51.618;19.388;2023-04-15T09:21:08;11.15;86.24
72928;SHT30;61071;51.618;19.388;2023-04-15T09:23:38;11.41;85.76
72928;SHT30;61071;51.618;19.388;2023-04-15T09:26:05;11.36;86.54
72928;SHT30;61071;51.618;19.388;2023-04-15T09:28:31;11.51;86.67
72928;SHT30;61071;51.618;19.388;2023-04-15T09:30:59;11.91;86.51
72928;SHT30;61071;51.618;19.388;2023-04-15T09:33:28;12.08;84.75
72928;SHT30;61071;51.618;19.388;2023-04-15T09:36:04;12.29;82.84
72928;SHT30;61071;51.618;19.388;2023-04-15T09:38:31;12.08;83.12
72928;SHT30;61071;51.618;19.388;2023-04-15T09:40:58;12.08;84.73
72928;SHT30;61071;51.618;19.388;2023-04-15T09:43:38;12.05;84.48
72928;SHT30;61071;51.618;19.388;2023-04-15T09:46:04;11.95;84.48
72928;SHT30;61071;51.618;19.388;2023-04-15T09:48:30;12.02;82.49
72928;SHT30;61071;51.618;19.388;2023-04-15T09:51:00;11.95;83.20
72928;SHT30;61071;51.618;19.388;2023-04-15T09:53:27;11.91;82.44
72928;SHT30;61071;51.618;19.388;2023-04-15T09:55:57;11.81;84.07
72928;SHT30;61071;51.618;19.388;2023-04-15T09:58:28;11.98;82.83
72928;SHT30;61071;51.618;19.388;2023-04-15T10:00:57;12.11;82.35
72928;SHT30;61071;51.618;19.388;2023-04-15T10:05:54;12.02;81.23
72928;SHT30;61071;51.618;19.388;2023-04-15T10:08:26;12.15;82.09
72928;SHT30;61071;51.618;19.388;2023-04-15T10:10:52;12.32;83.04
72928;SHT30;61071;51.618;19.388;2023-04-15T10:13:24;12.73;81.16
72928;SHT30;61071;51.618;19.388;2023-04-15T10:18:44;12.88;79.73
72928;SHT30;61071;51.618;19.388;2023-04-15T10:21:12;12.70;80.32
72928;SHT30;61071;51.618;19.388;2023-04-15T10:23:44;12.33;82.93
72928;SHT30;61071;51.618;19.388;2023-04-15T10:26:12;11.81;80.52
72928;SHT30;61071;51.618;19.388;2023-04-15T10:28:40;11.94;77.69
72928;SHT30;61071;51.618;19.388;2023-04-15T10:31:06;11.64;77.89
72928;SHT30;61071;51.618;19.388;2023-04-15T10:33:33;11.43;78.94
72928;SHT30;61071;51.618;19.388;2023-04-15T10:36:00;11.61;78.86
72928;SHT30;61071;51.618;19.388;2023-04-15T10:41:31;11.44;77.69
72928;SHT30;61071;51.618;19.388;2023-04-15T10:43:59;11.37;77.30
72928;SHT30;61071;51.618;19.388;2023-04-15T10:46:42;11.22;78.01
72928;SHT30;61071;51.618;19.388;2023-04-15T10:49:23;10.99;78.37
72928;SHT30;61071;51.618;19.388;2023-04-15T10:51:57;10.91;79.37
72928;SHT30;61071;51.618;19.388;2023-04-15T10:59:30;10.99;79.31
72928;SHT30;61071;51.618;19.388;2023-04-15T11:02:01;10.93;78.45
72928;SHT30;61071;51.618;19.388;2023-04-15T11:04:55;10.85;79.13
72928;SHT30;61071;51.618;19.388;2023-04-15T11:15:37;10.47;81.91
72928;SHT30;61071;51.618;19.388;2023-04-15T11:18:21;10.45;81.90
72928;SHT30;61071;51.618;19.388;2023-04-15T11:20:49;10.54;82.42
72928;SHT30;61071;51.618;19.388;2023-04-15T11:25:55;10.75;81.89
72928;SHT30;61071;51.618;19.388;2023-04-15T11:28:30;10.78;81.72
72928;SHT30;61071;51.618;19.388;2023-04-15T11:30:57;11.01;81.63
72928;SHT30;61071;51.618;19.388;2023-04-15T11:33:24;11.06;80.82
72928;SHT30;61071;51.618;19.388;2023-04-15T11:35:52;11.19;80.57
72928;SHT30;61071;51.618;19.388;2023-04-15T11:38:20;11.37;80.36
72928;SHT30;61071;51.618;19.388;2023-04-15T11:40:47;11.31;80.17
72928;SHT30;61071;51.618;19.388;2023-04-15T11:43:20;11.33;79.96
72928;SHT30;61071;51.618;19.388;2023-04-15T11:45:57;11.43;79.17
72928;SHT30;61071;51.618;19.388;2023-04-15T11:48:31;11.26;78.29
72928;SHT30;61071;51.618;19.388;2023-04-15T11:51:05;10.85;78.60
72928;SHT30;61071;51.618;19.388;2023-04-15T11:53:47;10.62;78.45
72928;SHT30;61071;51.618;19.388;2023-04-15T11:56:21;10.64;79.07
72928;SHT30;61071;51.618;19.388;2023-04-15T11:58:52;10.72;79.29
72928;SHT30;61071;51.618;19.388;2023-04-15T12:01:18;10.74;78.13
72928;SHT30;61071;51.618;19.388;2023-04-15T12:03:45;10.57;77.51
72928;SHT30;61071;51.618;19.388;2023-04-15T12:06:22;10.61;78.37
72928;SHT30;61071;51.618;19.388;2023-04-15T12:14:24;10.40;80.87
72928;SHT30;61071;51.618;19.388;2023-04-15T12:16:58;10.43;80.81
72928;SHT30;61071;51.618;19.388;2023-04-15T12:19:39;10.55;81.07
72928;SHT30;61071;51.618;19.388;2023-04-15T12:22:16;10.12;81.30
72928;SHT30;61071;51.618;19.388;2023-04-15T12:24:43;10.50;81.23
72928;SHT30;61071;51.618;19.388;2023-04-15T12:27:14;10.43;80.43
72928;SHT30;61071;51.618;19.388;2023-04-15T12:29:41;10.45;81.42
72928;SHT30;61071;51.618;19.388;2023-04-15T12:32:13;10.02;82.12
72928;SHT30;61071;51.618;19.388;2023-04-15T12:34:43;10.34;82.33
72928;SHT30;61071;51.618;19.388;2023-04-15T12:37:11;10.37;80.55
72928;SHT30;61071;51.618;19.388;2023-04-15T12:39:43;10.27;81.12
72928;SHT30;61071;51.618;19.388;2023-04-15T12:42:10;10.37;81.15
72928;SHT30;61071;51.618;19.388;2023-04-15T12:44:38;10.37;81.05
72928;SHT30;61071;51.618;19.388;2023-04-15T12:47:04;10.32;80.48
72928;SHT30;61071;51.618;19.388;2023-04-15T12:49:31;10.41;80.17
72928;SHT30;61071;51.618;19.388;2023-04-15T12:52:00;10.47;80.38
72928;SHT30;61071;51.618;19.388;2023-04-15T12:54:27;10.51;81.30
72928;SHT30;61071;51.618;19.388;2023-04-15T12:56:54;10.53;80.83
72928;SHT30;61071;51.618;19.388;2023-04-15T12:59:21;10.54;80.49
72928;SHT30;61071;51.618;19.388;2023-04-15T13:01:49;10.62;81.21
72928;SHT30;61071;51.618;19.388;2023-04-15T13:04:15;10.85;81.17
72928;SHT30;61071;51.618;19.388;2023-04-15T13:06:42;10.86;81.23
72928;SHT30;61071;51.618;19.388;2023-04-15T13:09:08;10.86;81.19
72928;SHT30;61071;51.618;19.388;2023-04-15T13:11:34;10.98;79.58
72928;SHT30;61071;51.618;19.388;2023-04-15T13:14:05;10.95;80.12
72928;SHT30;61071;51.618;19.388;2023-04-15T13:16:31;10.92;80.81
72928;SHT30;61071;51.618;19.388;2023-04-15T13:19:01;10.96;80.32
72928;SHT30;61071;51.618;19.388;2023-04-15T13:21:28;11.08;81.12
72928;SHT30;61071;51.618;19.388;2023-04-15T13:23:54;10.95;81.79
72928;SHT30;61071;51.618;19.388;2023-04-15T13:26:20;10.98;82.18
72928;SHT30;61071;51.618;19.388;2023-04-15T13:28:46;11.18;80.40
72928;SHT30;61071;51.618;19.388;2023-04-15T13:31:12;11.20;81.18
72928;SHT30;61071;51.618;19.388;2023-04-15T13:33:38;11.23;81.56
72928;SHT30;61071;51.618;19.388;2023-04-15T13:36:04;11.06;81.17
72928;SHT30;61071;51.618;19.388;2023-04-15T13:38:29;10.99;81.02
72928;SHT30;61071;51.618;19.388;2023-04-15T13:40:55;10.98;81.15
72928;SHT30;61071;51.618;19.388;2023-04-15T13:43:21;10.92;82.35
72928;SHT30;61071;51.618;19.388;2023-04-15T13:45:47;11.16;80.84
72928;SHT30;61071;51.618;19.388;2023-04-15T13:48:13;11.08;80.57
72928;SHT30;61071;51.618;19.388;2023-04-15T13:50:38;11.05;80.95
72928;SHT30;61071;51.618;19.388;2023-04-15T13:53:05;11.06;81.45
72928;SHT30;61071;51.618;19.388;2023-04-15T13:55:31;11.23;80.89
72928;SHT30;61071;51.618;19.388;2023-04-15T13:57:59;10.83;83.07
72928;SHT30;61071;51.618;19.388;2023-04-15T14:00:25;10.95;82.24
72928;SHT30;61071;51.618;19.388;2023-04-15T14:02:51;11.10;81.73
72928;SHT30;61071;51.618;19.388;2023-04-15T14:05:17;11.09;82.03
72928;SHT30;61071;51.618;19.388;2023-04-15T14:07:42;11.26;81.85
72928;SHT30;61071;51.618;19.388;2023-04-15T14:10:08;11.13;82.31
72928;SHT30;61071;51.618;19.388;2023-04-15T14:12:34;11.09;82.72
72928;SHT30;61071;51.618;19.388;2023-04-15T14:15:00;11.05;82.53
72928;SHT30;61071;51.618;19.388;2023-04-15T14:17:26;11.10;82.51
72928;SHT30;61071;51.618;19.388;2023-04-15T14:19:52;11.12;83.17
72928;SHT30;61071;51.618;19.388;2023-04-15T14:22:18;11.01;82.96
72928;SHT30;61071;51.618;19.388;2023-04-15T14:24:44;11.27;82.43
72928;SHT30;61071;51.618;19.388;2023-04-15T14:27:10;10.89;83.21
72928;SHT30;61071;51.618;19.388;2023-04-15T14:29:37;10.72;84.74
72928;SHT30;61071;51.618;19.388;2023-04-15T14:32:03;10.58;84.51
72928;SHT30;61071;51.618;19.388;2023-04-15T14:34:29;10.57;83.64
72928;SHT30;61071;51.618;19.388;2023-04-15T14:36:55;10.53;85.29
72928;SHT30;61071;51.618;19.388;2023-04-15T14:39:21;10.74;85.00
72928;SHT30;61071;51.618;19.388;2023-04-15T14:41:48;11.13;83.58
72928;SHT30;61071;51.618;19.388;2023-04-15T14:44:14;11.70;82.26
72928;SHT30;61071;51.618;19.388;2023-04-15T14:46:40;11.94;81.45
72928;SHT30;61071;51.618;19.388;2023-04-15T14:49:07;11.77;81.37
72928;SHT30;61071;51.618;19.388;2023-04-15T14:51:33;11.94;80.62
72928;SHT30;61071;51.618;19.388;2023-04-15T14:53:58;11.75;81.77
72928;SHT30;61071;51.618;19.388;2023-04-15T14:56:25;11.79;81.34
72928;SHT30;61071;51.618;19.388;2023-04-15T14:58:51;11.58;82.04
72928;SHT30;61071;51.618;19.388;2023-04-15T15:01:19;11.68;81.81
72928;SHT30;61071;51.618;19.388;2023-04-15T15:03:45;12.04;81.23
72928;SHT30;61071;51.618;19.388;2023-04-15T15:06:11;12.29;80.50
72928;SHT30;61071;51.618;19.388;2023-04-15T15:08:37;12.49;78.76
72928;SHT30;61071;51.618;19.388;2023-04-15T15:11:03;11.68;79.29
72928;SHT30;61071;51.618;19.388;2023-04-15T15:13:29;11.84;80.20
72928;SHT30;61071;51.618;19.388;2023-04-15T15:15:56;11.91;80.50
72928;SHT30;61071;51.618;19.388;2023-04-15T15:18:21;11.88;79.58
72928;SHT30;61071;51.618;19.388;2023-04-15T15:20:50;11.87;79.19
72928;SHT30;61071;51.618;19.388;2023-04-15T15:23:15;11.94;79.20
72928;SHT30;61071;51.618;19.388;2023-04-15T15:25:42;11.77;78.36
72928;SHT30;61071;51.618;19.388;2023-04-15T15:28:07;11.66;78.79
72928;SHT30;61071;51.618;19.388;2023-04-15T15:30:33;11.63;79.85
72928;SHT30;61071;51.618;19.388;2023-04-15T15:32:59;11.71;78.19
72928;SHT30;61071;51.618;19.388;2023-04-15T15:35:25;11.73;78.17
72928;SHT30;61071;51.618;19.388;2023-04-15T15:37:51;11.66;78.79
72928;SHT30;61071;51.618;19.388;2023-04-15T15:40:17;11.61;79.75
72928;SHT30;61071;51.618;19.388;2023-04-15T15:42:43;11.61;79.15
72928;SHT30;61071;51.618;19.388;2023-04-15T15:45:09;11.84;78.69
72928;SHT30;61071;51.618;19.388;2023-04-15T15:47:35;11.94;78.28
72928;SHT30;61071;51.618;19.388;2023-04-15T15:50:01;11.94;78.34